createdAt,value
2023-03-24T04:53:08.913Z,1.48
2023-03-24T04:57:08.948Z,1.45
2023-03-24T05:01:08.950Z,1.46
2023-03-24T05:05:08.758Z,1.44
2023-03-24T05:09:08.716Z,1.40
2023-03-24T05:13:08.701Z,1.40
2023-03-24T05:17:08.665Z,1.43
2023-03-24T06:49:07.769Z,1.82
2023-03-24T06:53:07.717Z,1.98
2023-03-24T06:57:07.722Z,1.95
2023-03-24T07:01:07.664Z,1.95
2023-03-24T07:05:07.625Z,1.99
2023-03-24T07:09:07.564Z,1.97
2023-03-24T07:13:07.526Z,1.99
2023-03-24T07:17:07.484Z,2.01
2023-03-24T07:21:07.456Z,2.06
2023-03-24T07:25:07.423Z,2.45
2023-03-24T10:01:04.213Z,2.84
2023-03-24T10:05:05.310Z,2.83
2023-03-24T10:09:03.983Z,2.89
2023-03-24T10:13:03.890Z,2.95
2023-03-24T10:17:03.837Z,2.84
2023-03-24T10:21:03.780Z,2.59
2023-03-24T10:25:03.745Z,2.40
2023-03-24T10:29:03.895Z,3.09
2023-03-24T10:33:03.499Z,3.32
2023-03-24T10:37:03.889Z,3.41
2023-03-24T10:41:03.215Z,3.43
2023-03-24T10:45:03.120Z,3.41
2023-03-24T10:49:02.960Z,3.32
2023-03-24T10:53:02.837Z,3.37
2023-03-24T10:57:02.788Z,3.38
2023-03-24T11:01:02.636Z,3.21
2023-03-24T11:05:02.587Z,3.25
2023-03-24T11:09:02.406Z,3.25
2023-03-24T11:13:02.393Z,3.38
2023-03-24T11:17:02.499Z,3.46
2023-03-24T11:21:02.365Z,3.53
2023-03-24T11:25:02.254Z,3.61
2023-03-24T11:29:02.134Z,3.65
2023-03-24T11:33:02.069Z,3.71
2023-03-24T11:37:01.920Z,3.72
2023-03-24T11:41:01.783Z,3.68
2023-03-24T11:45:01.762Z,3.42
2023-03-24T11:49:01.575Z,3.29
2023-03-24T11:53:01.476Z,3.18
2023-03-24T11:57:01.396Z,3.00
2023-03-24T12:01:01.247Z,2.88
2023-03-24T12:05:01.145Z,2.98
2023-03-24T12:09:01.163Z,2.88
2023-03-24T12:13:00.951Z,2.80
2023-03-24T12:17:00.829Z,2.81
2023-03-24T12:21:00.744Z,2.55
2023-03-24T12:25:00.602Z,2.59
2023-03-24T12:29:00.482Z,2.45
2023-03-24T12:33:00.442Z,2.50
2023-03-24T12:37:00.265Z,2.55
2023-03-24T12:41:00.168Z,2.44
2023-03-24T12:45:00.049Z,2.38
2023-03-24T12:48:59.933Z,2.39
2023-03-24T12:53:07.790Z,1.51
2023-03-24T12:57:00.913Z,1.19
2023-03-24T13:00:59.496Z,0.40
2023-03-24T13:04:59.896Z,0.34
2023-03-24T13:08:59.009Z,0.34
2023-03-24T13:12:58.804Z,0.53
2023-03-24T13:16:58.699Z,0.48
2023-03-24T13:20:58.396Z,0.49
2023-03-24T13:24:58.191Z,0.56
2023-03-24T13:28:57.972Z,0.51
2023-03-24T13:32:57.973Z,0.50
2023-03-24T13:36:57.726Z,0.49
2023-03-24T13:40:57.607Z,0.50
2023-03-24T13:44:57.456Z,0.56
2023-03-24T13:48:57.377Z,0.50
2023-03-24T13:52:57.342Z,0.73
2023-03-24T13:56:57.229Z,1.22
2023-03-24T14:00:57.106Z,2.95
2023-03-24T14:04:56.991Z,7.42
2023-03-24T14:08:56.889Z,13.51
2023-03-24T14:12:56.884Z,19.40
2023-03-24T14:16:56.701Z,29.02
2023-03-24T14:20:56.603Z,40.51
2023-03-24T14:24:56.442Z,51.86
2023-03-24T14:28:56.382Z,64.37
2023-03-24T14:32:56.260Z,75.62
2023-03-24T14:36:56.087Z,88.44
2023-03-24T14:40:56.002Z,97.42
2023-03-24T14:44:55.911Z,106.87
2023-03-24T14:48:55.788Z,115.43
2023-03-24T14:52:55.685Z,124.38
2023-03-24T14:56:55.645Z,130.78
2023-03-24T15:01:07.135Z,138.21
2023-03-24T15:04:56.266Z,144.45
2023-03-24T15:08:55.073Z,150.06
2023-03-24T15:12:54.892Z,153.00
2023-03-24T15:16:54.706Z,158.42
2023-03-24T15:20:54.529Z,161.82
2023-03-24T15:24:54.350Z,163.73
2023-03-24T15:28:54.162Z,164.33
2023-03-24T15:32:54.027Z,165.42
2023-03-24T15:36:53.921Z,165.71
2023-03-24T15:40:53.813Z,165.45
2023-03-24T15:44:53.728Z,163.65
2023-03-24T15:48:53.629Z,167.90
2023-03-24T15:52:53.524Z,169.39
2023-03-24T15:56:53.487Z,167.98
2023-03-24T16:00:53.462Z,167.11
2023-03-24T16:05:04.002Z,162.70
2023-03-24T16:08:54.375Z,165.35
2023-03-24T16:12:52.834Z,162.35
2023-03-24T16:16:52.691Z,181.50
2023-03-24T16:20:52.437Z,190.62
2023-03-24T16:24:52.244Z,195.32
2023-03-24T16:28:52.202Z,193.51
2023-03-24T16:32:52.233Z,199.18
2023-03-24T16:36:52.244Z,197.39
2023-03-24T16:40:52.250Z,197.38
2023-03-24T16:44:52.250Z,186.04
2023-03-24T16:48:52.237Z,182.90
2023-03-24T16:52:52.242Z,175.93
2023-03-24T16:56:52.337Z,171.34
2023-03-24T17:00:52.287Z,169.65
2023-03-24T17:04:52.209Z,165.48
2023-03-24T17:08:52.331Z,161.23
2023-03-24T17:12:52.226Z,158.83
2023-03-24T17:16:52.232Z,160.73
2023-03-24T17:20:52.255Z,160.57
2023-03-24T17:24:52.275Z,158.81
2023-03-24T17:28:52.298Z,154.30
2023-03-24T17:32:52.343Z,150.82
2023-03-24T17:36:52.335Z,150.50
2023-03-24T17:40:52.378Z,150.41
2023-03-24T17:44:52.441Z,145.62
2023-03-24T17:48:52.330Z,143.64
2023-03-24T17:52:52.337Z,141.71
2023-03-24T17:56:52.365Z,136.47
2023-03-24T18:00:52.950Z,136.18
2023-03-24T18:04:52.262Z,132.09
2023-03-24T18:08:52.303Z,133.01
2023-03-24T18:12:52.243Z,131.15
2023-03-24T18:16:52.329Z,131.42
2023-03-24T18:20:52.200Z,130.61
2023-03-24T18:24:52.148Z,129.11
2023-03-24T18:28:52.051Z,126.52
2023-03-24T18:32:52.041Z,125.11
2023-03-24T18:36:51.860Z,121.71
2023-03-24T18:40:51.952Z,123.93
2023-03-24T18:44:51.683Z,119.56
2023-03-24T18:48:51.784Z,117.98
2023-03-24T18:52:51.500Z,115.71
2023-03-24T18:56:51.930Z,114.45
2023-03-24T19:00:51.474Z,110.86
2023-03-24T19:04:51.198Z,110.24
2023-03-24T19:08:51.163Z,107.53
2023-03-24T19:12:51.017Z,106.06
2023-03-24T19:16:50.901Z,103.29
2023-03-24T19:20:50.899Z,101.48
2023-03-24T19:24:50.734Z,98.52
2023-03-24T19:28:50.652Z,96.86
2023-03-24T19:32:50.601Z,95.59
2023-03-24T19:36:50.480Z,94.25
2023-03-24T19:40:50.380Z,91.76
2023-03-24T19:44:50.314Z,88.83
2023-03-24T19:48:50.212Z,88.06
2023-03-24T19:52:50.171Z,85.73
2023-03-24T19:56:50.046Z,88.40
2023-03-24T20:00:49.927Z,82.83
2023-03-24T20:04:49.851Z,81.14
2023-03-24T20:08:49.755Z,79.53
2023-03-24T20:12:49.810Z,78.29
2023-03-24T20:16:49.627Z,77.70
2023-03-24T20:20:49.570Z,74.70
2023-03-24T20:24:49.531Z,73.59
2023-03-24T20:28:49.453Z,72.48
2023-03-24T20:32:49.427Z,70.52
2023-03-24T20:36:49.339Z,69.54
2023-03-24T20:40:49.277Z,67.73
2023-03-24T20:44:49.348Z,66.28
2023-03-24T20:48:49.184Z,65.63
2023-03-24T20:52:49.121Z,66.15
2023-03-24T20:56:49.127Z,64.11
2023-03-24T21:00:49.054Z,62.04
2023-03-24T21:04:48.942Z,60.97
2023-03-24T21:08:48.951Z,59.07
2023-03-24T21:12:52.900Z,58.13
2023-03-24T21:16:49.694Z,58.24
2023-03-24T21:20:48.433Z,56.91
2023-03-24T21:24:48.234Z,55.84
2023-03-24T21:28:48.045Z,55.09
2023-03-24T21:32:48.022Z,53.61
2023-03-24T21:36:47.928Z,53.14
2023-03-24T21:40:47.874Z,51.04
2023-03-24T21:44:47.814Z,50.85
2023-03-24T21:48:47.833Z,49.20
2023-03-24T21:52:47.845Z,48.36
2023-03-24T21:56:47.705Z,46.66
2023-03-24T22:00:47.573Z,46.50
2023-03-24T22:04:47.511Z,43.65
2023-03-24T22:08:47.455Z,43.14
2023-03-24T22:12:47.408Z,41.11
2023-03-24T22:16:47.407Z,40.59
2023-03-24T22:20:47.313Z,40.47
2023-03-24T22:24:47.255Z,39.63
2023-03-24T22:28:47.221Z,39.01
2023-03-24T22:32:47.169Z,38.37
2023-03-24T22:36:47.076Z,37.30
2023-03-24T22:40:47.017Z,36.49
2023-03-24T22:44:46.963Z,36.72
2023-03-24T22:48:46.900Z,35.63
2023-03-24T22:52:46.841Z,34.55
2023-03-24T22:56:46.826Z,34.89
2023-03-24T23:00:47.357Z,33.56
2023-03-24T23:04:46.881Z,32.95
2023-03-24T23:08:46.620Z,33.20
2023-03-24T23:12:46.558Z,32.16
2023-03-24T23:16:46.569Z,31.06
2023-03-24T23:20:46.460Z,30.58
2023-03-24T23:24:46.417Z,30.08
2023-03-24T23:28:46.360Z,29.59
2023-03-24T23:32:46.426Z,29.12
2023-03-24T23:36:46.276Z,28.28
2023-03-24T23:40:46.242Z,28.08
2023-03-24T23:44:46.189Z,27.47
2023-03-24T23:48:46.164Z,27.11
2023-03-24T23:52:46.136Z,26.86
2023-03-24T23:56:46.145Z,26.18
